Time;durP1;ratioP1;P1;durP2;ratioP2;P2;SDS_P1;SDS_P2;PMS_P1;PMS_P2;Temp;Humidity;BMP_temperature;BMP_pressure;BME280_temperature;BME280_humidity;BME280_pressure;Samples;Min_cycle;Max_cycle;Signal;HPM_P1;HPM_P2
2022/08/25 00:01:56;;;;;;;6.65;1.88;;;19.50;99.80;;;;;;5073771;28;20051;-73
2022/08/25 00:04:25;;;;;;;6.35;2.20;;;19.40;99.90;;;;;;5074963;28;20052;-72
2022/08/25 00:06:54;;;;;;;5.75;2.35;;;19.40;99.90;;;;;;5074820;28;20060;-73
2022/08/25 00:09:30;;;;;;;2.88;1.88;;;19.40;99.90;;;;;;5073732;28;20044;-73
2022/08/25 00:11:58;;;;;;;4.57;2.17;;;19.40;99.90;;;;;;5074730;28;20352;-74
2022/08/25 00:14:30;;;;;;;3.75;2.10;;;19.40;99.90;;;;;;5075294;28;20044;-72
2022/08/25 00:16:57;;;;;;;4.22;1.95;;;19.50;99.90;;;;;;5073783;28;20482;-73
2022/08/25 00:19:28;;;;;;;3.90;2.33;;;19.40;99.90;;;;;;5074899;28;20044;-72
2022/08/25 00:21:56;;;;;;;3.63;2.28;;;19.40;99.90;;;;;;5073472;28;20389;-72
2022/08/25 00:24:24;;;;;;;4.43;2.45;;;19.40;99.90;;;;;;5057219;28;20041;-73
2022/08/25 00:26:53;;;;;;;;;;;19.40;99.90;;;;;;5075024;28;20063;-72
2022/08/25 00:29:24;;;;;;;4.15;2.20;;;19.30;99.90;;;;;;5073479;28;19920;-73
2022/08/25 00:31:53;;;;;;;3.33;2.15;;;19.30;99.90;;;;;;5074902;28;20059;-74
2022/08/25 00:34:25;;;;;;;3.97;2.22;;;19.30;99.90;;;;;;5057239;28;20053;-73
2022/08/25 00:36:53;;;;;;;5.03;2.70;;;19.30;99.90;;;;;;5079032;28;20048;-73
2022/08/25 00:39:22;;;;;;;3.90;2.10;;;19.20;99.90;;;;;;5081572;28;20360;-72
2022/08/25 00:41:54;;;;;;;3.95;2.40;;;19.30;99.90;;;;;;5062591;28;20052;-73
2022/08/25 00:44:24;;;;;;;4.00;2.63;;;19.20;99.90;;;;;;5081165;28;20056;-73
2022/08/25 00:46:55;;;;;;;3.55;2.28;;;19.20;99.90;;;;;;5081042;28;20045;-72
2022/08/25 00:49:31;;;;;;;4.35;2.55;;;19.10;99.90;;;;;;5080230;28;20052;-73
2022/08/25 00:52:03;;;;;;;4.72;2.30;;;19.00;99.90;;;;;;5063543;28;20055;-73
2022/08/25 00:54:35;;;;;;;4.38;2.30;;;19.00;99.90;;;;;;5081403;28;20071;-73
2022/08/25 00:57:06;;;;;;;3.70;2.10;;;19.00;99.90;;;;;;5080054;28;20439;-73
2022/08/25 00:59:34;;;;;;;8.52;2.60;;;19.00;99.90;;;;;;5063652;28;20051;-74
2022/08/25 01:02:04;;;;;;;4.70;2.50;;;19.00;99.90;;;;;;5079852;28;20055;-74
2022/08/25 01:04:36;;;;;;;3.85;2.38;;;19.10;99.90;;;;;;5063961;28;20060;-72
2022/08/25 01:07:04;;;;;;;5.90;2.45;;;19.10;99.90;;;;;;5063486;28;20367;-74
2022/08/25 01:09:37;;;;;;;5.80;2.53;;;19.10;99.90;;;;;;5079851;28;20375;-74
2022/08/25 01:12:05;;;;;;;4.43;2.45;;;19.10;99.90;;;;;;5081038;28;20048;-74
2022/08/25 01:14:34;;;;;;;6.20;2.60;;;19.20;99.90;;;;;;5081327;28;20047;-72
2022/08/25 01:17:02;;;;;;;4.90;2.63;;;19.20;99.90;;;;;;5079651;28;20489;-73
2022/08/25 01:19:32;;;;;;;6.70;2.55;;;19.20;99.90;;;;;;5080982;28;20359;-74
2022/08/25 01:22:00;;;;;;;4.28;2.50;;;19.30;99.90;;;;;;5080017;28;20044;-73
2022/08/25 01:25:08;;;;;;;7.00;2.67;;;19.30;99.90;;;;;;5079720;28;20060;-73
2022/08/25 01:27:35;;;;;;;6.43;2.63;;;19.30;99.90;;;;;;5026725;28;20048;-73
2022/08/25 01:30:04;;;;;;;5.47;3.05;;;19.40;99.90;;;;;;5079625;28;20044;-74
2022/08/25 01:32:33;;;;;;;5.70;2.90;;;19.40;99.90;;;;;;5080889;28;20471;-73
2022/08/25 01:35:01;;;;;;;5.18;2.80;;;19.40;99.90;;;;;;5079401;28;20059;-74
2022/08/25 01:37:34;;;;;;;5.50;3.13;;;19.50;99.90;;;;;;5063505;28;20098;-73
2022/08/25 01:40:02;;;;;;;5.05;2.72;;;19.50;99.90;;;;;;5080615;28;20044;-74
2022/08/25 01:42:59;;;;;;;3.90;2.70;;;19.50;99.90;;;;;;5079494;28;20067;-73
2022/08/25 01:45:26;;;;;;;4.80;2.85;;;19.50;99.90;;;;;;5070198;28;20049;-74
2022/08/25 01:47:55;;;;;;;5.22;2.78;;;19.50;99.90;;;;;;5077078;28;20491;-73
2022/08/25 01:50:23;;;;;;;5.15;3.00;;;19.50;99.90;;;;;;5076250;28;20049;-72
2022/08/25 01:53:28;;;;;;;6.53;3.00;;;19.50;99.90;;;;;;5059938;28;20056;-74
2022/08/25 01:56:00;;;;;;;6.47;2.80;;;19.40;99.90;;;;;;5076095;28;20052;-73
2022/08/25 01:58:33;;;;;;;5.68;3.53;;;19.40;99.90;;;;;;5077489;28;20475;-74
2022/08/25 02:01:04;;;;;;;5.07;3.00;;;19.30;99.90;;;;;;5077495;28;20378;-73
2022/08/25 02:03:36;;;;;;;7.55;3.10;;;19.30;99.90;;;;;;5076150;28;20058;-73
2022/08/25 02:06:11;;;;;;;6.93;3.05;;;19.20;99.90;;;;;;5077009;28;20040;-73
2022/08/25 02:08:39;;;;;;;4.72;3.08;;;19.20;99.90;;;;;;5075927;28;20491;-74
2022/08/25 02:11:11;;;;;;;;;;;19.10;99.90;;;;;;5077797;28;20456;-72
2022/08/25 02:13:41;;;;;;;4.47;2.90;;;19.10;99.90;;;;;;5076906;28;19920;-73
2022/08/25 02:16:13;;;;;;;4.97;3.05;;;19.10;99.90;;;;;;5075799;28;20490;-73
2022/08/25 02:18:41;;;;;;;8.18;2.90;;;19.10;99.90;;;;;;5059237;28;20459;-73
2022/08/25 02:21:10;;;;;;;4.57;3.00;;;19.20;99.90;;;;;;5077457;28;20044;-73
2022/08/25 02:23:37;;;;;;;5.28;2.90;;;19.20;99.90;;;;;;5075767;28;20052;-74
2022/08/25 02:26:05;;;;;;;7.90;3.28;;;19.20;99.90;;;;;;5076844;28;20048;-72
2022/08/25 02:28:33;;;;;;;4.63;2.65;;;19.30;99.90;;;;;;5075550;28;20047;-73
2022/08/25 02:31:01;;;;;;;4.82;2.83;;;19.40;99.90;;;;;;5076834;28;20048;-72
2022/08/25 02:33:28;;;;;;;;;;;19.40;99.90;;;;;;5076992;28;20044;-72
2022/08/25 02:35:58;;;;;;;5.43;2.88;;;19.40;99.90;;;;;;5075787;28;19959;-74
2022/08/25 02:38:27;;;;;;;5.18;2.92;;;19.50;99.90;;;;;;5076359;28;20037;-72
2022/08/25 02:40:57;;;;;;;9.40;3.63;;;19.60;99.90;;;;;;5076507;28;20052;-73
2022/08/25 02:43:26;;;;;;;6.00;3.92;;;19.60;99.90;;;;;;5075214;28;20044;-72
2022/08/25 02:45:55;;;;;;;9.63;3.83;;;19.70;99.90;;;;;;5076285;28;20048;-72
2022/08/25 02:48:23;;;;;;;11.40;4.80;;;19.70;99.90;;;;;;5075556;28;20045;-72
2022/08/25 02:50:51;;;;;;;12.32;4.22;;;19.80;99.90;;;;;;5076239;28;20059;-72
2022/08/25 02:53:20;;;;;;;11.90;4.57;;;19.80;99.90;;;;;;5076296;28;20045;-74
2022/08/25 02:55:48;;;;;;;7.03;4.18;;;19.80;99.90;;;;;;5057559;28;20067;-73
2022/08/25 02:58:15;;;;;;;7.68;4.15;;;19.80;99.90;;;;;;5075817;28;20045;-74
2022/08/25 03:00:44;;;;;;;7.65;4.10;;;19.80;99.90;;;;;;5076484;28;20049;-74
2022/08/25 03:03:12;;;;;;;7.68;4.30;;;19.90;99.90;;;;;;5057701;28;20036;-72
2022/08/25 03:05:40;;;;;;;8.52;4.45;;;19.80;99.90;;;;;;5075991;28;20047;-73
2022/08/25 03:08:08;;;;;;;9.93;4.07;;;19.80;99.90;;;;;;5075660;28;20044;-72
2022/08/25 03:10:36;;;;;;;;;;;19.80;99.90;;;;;;5076265;28;20048;-72
2022/08/25 03:13:04;;;;;;;8.35;4.30;;;19.80;99.90;;;;;;5075794;28;19920;-73
2022/08/25 03:15:32;;;;;;;13.70;4.85;;;19.80;99.90;;;;;;5075263;28;20379;-73
2022/08/25 03:18:00;;;;;;;8.38;4.63;;;19.80;99.90;;;;;;5075694;28;20048;-72
2022/08/25 03:20:30;;;;;;;10.32;4.43;;;19.80;99.90;;;;;;5058646;28;20451;-73
2022/08/25 03:22:57;;;;;;;9.23;4.63;;;19.80;99.90;;;;;;5074462;28;20036;-74
2022/08/25 03:28:11;;;;;;;10.75;4.43;;;19.90;99.90;;;;;;5074560;28;20136;-73
2022/08/25 03:30:39;;;;;;;9.57;4.10;;;19.90;99.90;;;;;;5075724;28;20044;-73
2022/08/25 03:33:07;;;;;;;;;;;19.90;99.90;;;;;;5075830;28;20048;-73
2022/08/25 03:35:35;;;;;;;11.30;4.55;;;19.80;99.90;;;;;;5074314;28;19928;-73
2022/08/25 03:38:03;;;;;;;11.80;4.28;;;19.90;99.90;;;;;;5057756;28;20044;-72
2022/08/25 03:40:31;;;;;;;9.25;4.32;;;19.90;99.90;;;;;;5075307;28;20051;-73
2022/08/25 03:42:59;;;;;;;;;;;19.90;99.90;;;;;;5074553;28;20055;-73
2022/08/25 03:45:27;;;;;;;8.45;3.95;;;19.80;99.90;;;;;;5057927;28;19935;-73
2022/08/25 03:47:54;;;;;;;7.55;3.80;;;19.90;99.90;;;;;;5075321;28;20375;-72
2022/08/25 03:50:22;;;;;;;9.18;4.22;;;19.90;99.90;;;;;;5073927;28;20044;-73
2022/08/25 03:52:55;;;;;;;13.63;4.45;;;19.90;99.90;;;;;;5075047;28;20052;-73
2022/08/25 03:55:24;;;;;;;12.60;4.65;;;20.00;99.90;;;;;;5040314;28;20048;-74
2022/08/25 03:57:53;;;;;;;10.00;4.38;;;20.00;99.90;;;;;;5074870;28;20040;-74
2022/08/25 04:00:22;;;;;;;11.23;4.03;;;20.00;99.90;;;;;;5074891;28;20055;-74
2022/08/25 04:02:49;;;;;;;7.95;3.70;;;20.00;99.90;;;;;;5073724;28;20040;-73
2022/08/25 04:05:19;;;;;;;8.30;3.65;;;20.10;99.90;;;;;;5074030;28;20052;-73
2022/08/25 04:07:46;;;;;;;10.07;3.58;;;20.10;99.90;;;;;;5057686;28;20052;-73
2022/08/25 04:10:14;;;;;;;8.57;3.78;;;20.10;99.90;;;;;;5073137;28;20044;-72
2022/08/25 04:12:42;;;;;;;9.57;3.53;;;20.10;99.90;;;;;;5074903;28;20067;-73
2022/08/25 04:15:10;;;;;;;8.02;3.40;;;20.10;99.90;;;;;;5073868;28;20049;-74
2022/08/25 04:17:38;;;;;;;11.05;3.83;;;20.10;99.90;;;;;;5057311;28;20044;-72
2022/08/25 04:20:09;;;;;;;7.28;3.53;;;20.20;99.90;;;;;;5074668;28;20044;-73
2022/08/25 04:22:40;;;;;;;25.70;6.00;;;20.20;99.90;;;;;;5055603;28;20045;-75
2022/08/25 04:25:12;;;;;;;27.67;5.13;;;20.10;99.90;;;;;;5074651;28;20044;-74
2022/08/25 04:27:39;;;;;;;14.82;5.30;;;19.80;99.90;;;;;;5074563;28;20051;-73
2022/08/25 04:30:08;;;;;;;20.00;6.40;;;19.60;99.90;;;;;;5073604;28;20051;-74
2022/08/25 04:32:36;;;;;;;24.30;8.35;;;19.40;99.90;;;;;;5074929;28;20048;-75
2022/08/25 04:35:04;;;;;;;20.77;8.88;;;19.30;99.90;;;;;;5073282;28;20063;-75
2022/08/25 04:37:32;;;;;;;19.10;9.07;;;19.20;99.90;;;;;;5057323;28;20059;-75
2022/08/25 04:40:00;;;;;;;23.70;9.65;;;19.20;99.90;;;;;;5057513;28;20451;-75
2022/08/25 04:42:27;;;;;;;19.27;8.85;;;19.30;99.90;;;;;;5073313;28;20064;-73
2022/08/25 04:44:55;;;;;;;19.00;9.85;;;19.20;99.90;;;;;;5057422;28;20036;-75
2022/08/25 04:47:23;;;;;;;29.13;13.20;;;19.20;99.90;;;;;;5074518;28;20045;-74
2022/08/25 04:49:50;;;;;;;66.65;20.15;;;19.20;99.90;;;;;;5073554;28;20044;-75
2022/08/25 04:52:19;;;;;;;46.85;13.38;;;19.20;99.90;;;;;;5074377;28;20048;-75
2022/08/25 04:54:47;;;;;;;51.67;11.93;;;19.20;99.90;;;;;;5057062;28;20371;-75
2022/08/25 04:57:14;;;;;;;38.08;14.27;;;19.20;99.90;;;;;;5074554;28;20048;-74
2022/08/25 04:59:42;;;;;;;45.42;15.68;;;19.10;99.90;;;;;;5074255;28;20044;-75
2022/08/25 05:02:09;;;;;;;59.40;24.23;;;19.00;99.90;;;;;;5073210;28;20045;-75
2022/08/25 05:04:37;;;;;;;58.45;26.20;;;18.90;99.90;;;;;;5074690;28;20049;-75
2022/08/25 05:07:05;;;;;;;68.68;30.77;;;19.00;99.90;;;;;;5074422;28;20459;-76
2022/08/25 05:09:32;;;;;;;67.80;29.75;;;19.00;99.90;;;;;;5073208;28;20048;-73
2022/08/25 05:12:01;;;;;;;55.17;25.33;;;19.00;99.90;;;;;;5056693;28;20059;-76
2022/08/25 05:14:31;;;;;;;82.70;23.08;;;19.00;99.90;;;;;;5074196;28;20063;-76
2022/08/25 05:16:59;;;;;;;69.55;26.85;;;19.00;99.90;;;;;;5073048;28;20055;-75
2022/08/25 05:19:27;;;;;;;93.03;33.72;;;19.00;99.90;;;;;;5056839;28;20040;-73
2022/08/25 05:21:55;;;;;;;63.13;27.48;;;18.90;99.90;;;;;;5074227;28;20068;-72
2022/08/25 05:24:25;;;;;;;71.68;32.13;;;19.00;99.90;;;;;;5077559;28;20051;-73
2022/08/25 05:26:53;;;;;;;68.75;29.95;;;19.20;99.90;;;;;;5078108;28;20068;-73
2022/08/25 05:29:20;;;;;;;86.90;31.58;;;19.00;99.90;;;;;;5059887;28;20044;-74
2022/08/25 05:31:48;;;;;;;86.60;31.23;;;19.00;99.90;;;;;;5078362;28;20052;-74
2022/08/25 05:34:18;;;;;;;51.60;23.38;;;19.00;99.90;;;;;;5060278;28;20048;-73
2022/08/25 05:36:47;;;;;;;99.13;30.80;;;19.10;99.90;;;;;;5076470;28;20049;-73
2022/08/25 05:39:15;;;;;;;42.47;22.20;;;19.00;99.90;;;;;;5077412;28;20045;-73
2022/08/25 05:41:42;;;;;;;60.70;26.15;;;19.00;99.90;;;;;;5076783;28;20044;-74
2022/08/25 05:44:11;;;;;;;65.13;27.67;;;19.10;99.90;;;;;;5059994;28;20052;-72
2022/08/25 05:46:39;;;;;;;51.83;23.73;;;19.10;99.90;;;;;;5077580;28;20048;-73
2022/08/25 05:49:09;;;;;;;36.38;20.67;;;19.10;99.90;;;;;;5076262;28;20048;-74
2022/08/25 05:51:36;;;;;;;65.13;29.88;;;19.10;99.90;;;;;;5077310;28;20348;-74
2022/08/25 05:54:04;;;;;;;55.00;26.10;;;19.10;99.90;;;;;;5077304;28;20040;-74
2022/08/25 05:56:32;;;;;;;;;;;19.10;99.90;;;;;;5077076;28;20048;-73
2022/08/25 05:59:00;;;;;;;51.15;26.00;;;19.10;99.90;;;;;;5077346;28;19920;-72
2022/08/25 06:04:19;;;;;;;48.15;25.30;;;19.20;99.90;;;;;;5077568;28;20044;-73
2022/08/25 06:06:47;;;;;;;75.80;28.35;;;19.10;99.90;;;;;;5077167;28;20056;-73
2022/08/25 06:09:15;;;;;;;86.10;32.60;;;19.20;99.90;;;;;;5075935;28;20052;-75
2022/08/25 06:11:43;;;;;;;91.25;32.35;;;19.20;99.90;;;;;;5077096;28;20048;-74
2022/08/25 06:14:11;;;;;;;92.88;32.90;;;19.20;99.90;;;;;;5076833;28;20048;-74
2022/08/25 06:16:39;;;;;;;74.90;30.02;;;19.20;99.90;;;;;;5058404;28;20048;-73
2022/08/25 06:19:08;;;;;;;64.35;24.65;;;19.20;99.90;;;;;;5076853;28;20356;-74
2022/08/25 06:21:38;;;;;;;116.05;35.30;;;19.20;99.90;;;;;;5075712;28;20048;-72
2022/08/25 06:24:08;;;;;;;58.42;22.80;;;19.10;99.90;;;;;;5076712;28;20041;-74
2022/08/25 06:26:42;;;;;;;72.65;28.67;;;19.20;99.90;;;;;;5076862;28;20045;-75
2022/08/25 06:29:12;;;;;;;64.13;27.10;;;19.20;99.90;;;;;;5075499;28;20063;-73
2022/08/25 06:31:41;;;;;;;85.57;27.70;;;19.10;99.90;;;;;;5076801;28;20056;-75
2022/08/25 06:34:10;;;;;;;70.97;32.25;;;19.00;99.90;;;;;;5075665;28;20044;-74
2022/08/25 06:36:38;;;;;;;79.60;32.50;;;19.20;99.90;;;;;;5075337;28;20053;-73
2022/08/25 06:39:07;;;;;;;64.13;30.70;;;19.10;99.90;;;;;;5058826;28;20040;-74
2022/08/25 06:41:37;;;;;;;81.20;35.50;;;19.00;99.90;;;;;;5075333;28;20044;-74
2022/08/25 06:44:05;;;;;;;;;;;19.10;99.90;;;;;;5077239;28;20040;-72
2022/08/25 06:46:33;;;;;;;85.43;33.33;;;18.90;99.90;;;;;;5076595;28;19927;-73
2022/08/25 06:49:05;;;;;;;86.80;33.30;;;19.20;99.90;;;;;;5075205;28;20048;-74
2022/08/25 06:51:34;;;;;;;43.90;24.13;;;19.10;99.90;;;;;;5076452;28;20052;-73
2022/08/25 06:54:05;;;;;;;50.75;24.10;;;19.10;99.90;;;;;;5076164;28;20053;-73
2022/08/25 06:56:33;;;;;;;66.90;31.17;;;19.00;99.90;;;;;;5041267;28;20052;-74
2022/08/25 06:59:01;;;;;;;;;;;19.10;99.90;;;;;;5076844;28;20355;-73
2022/08/25 07:01:30;;;;;;;79.80;35.03;;;19.10;99.90;;;;;;5075440;28;19924;-73
2022/08/25 07:04:00;;;;;;;45.65;26.95;;;19.10;99.90;;;;;;5076184;28;20352;-72
2022/08/25 07:06:30;;;;;;;38.70;23.77;;;19.10;99.90;;;;;;5076186;28;20375;-74
2022/08/25 07:08:58;;;;;;;79.57;33.33;;;19.10;99.90;;;;;;5074750;28;20041;-73
2022/08/25 07:11:27;;;;;;;79.63;31.08;;;19.20;99.90;;;;;;5075293;28;20047;-74
2022/08/25 07:13:54;;;;;;;;;;;19.10;99.90;;;;;;5058343;28;20045;-74
2022/08/25 07:16:22;;;;;;;52.03;27.65;;;19.20;99.90;;;;;;5040586;28;20365;-72
2022/08/25 07:18:57;;;;;;;72.75;33.63;;;19.10;99.90;;;;;;5075573;28;20060;-74
2022/08/25 07:21:29;;;;;;;104.13;37.88;;;19.10;99.90;;;;;;5075370;28;20040;-73
2022/08/25 07:24:02;;;;;;;97.18;37.38;;;19.00;99.90;;;;;;5075397;28;20048;-73
2022/08/25 07:26:33;;;;;;;75.55;32.28;;;19.10;99.90;;;;;;5057559;28;20463;-73
2022/08/25 07:29:09;;;;;;;62.80;31.92;;;19.10;99.90;;;;;;5074117;28;20102;-74
2022/08/25 07:31:37;;;;;;;80.03;33.28;;;19.10;99.90;;;;;;5075399;28;20037;-74
2022/08/25 07:36:53;;;;;;;60.20;30.70;;;19.20;99.90;;;;;;5074088;28;20055;-74
2022/08/25 07:39:22;;;;;;;71.22;31.55;;;19.20;99.90;;;;;;5074905;28;20040;-75
2022/08/25 07:41:50;;;;;;;59.10;30.27;;;19.10;99.90;;;;;;5073624;28;20354;-75
2022/08/25 07:44:21;;;;;;;70.60;33.25;;;19.20;99.90;;;;;;5074822;28;20071;-73
2022/08/25 07:46:49;;;;;;;60.33;31.00;;;19.30;99.90;;;;;;5074172;28;20037;-76
2022/08/25 07:49:18;;;;;;;48.65;25.83;;;19.40;99.90;;;;;;5073725;28;20482;-73
2022/08/25 07:51:54;;;;;;;44.95;25.60;;;19.30;99.90;;;;;;5074865;28;20040;-74
2022/08/25 07:54:34;;;;;;;57.38;27.92;;;19.30;99.90;;;;;;5074798;28;20371;-74
2022/08/25 07:57:07;;;;;;;49.70;25.30;;;19.40;99.90;;;;;;5070935;28;20051;-73
2022/08/25 07:59:39;;;;;;;46.17;25.60;;;19.40;99.90;;;;;;5072636;28;20111;-73
2022/08/25 08:02:12;;;;;;;59.30;28.08;;;19.40;99.90;;;;;;5073532;28;20055;-75
2022/08/25 08:04:49;;;;;;;50.60;27.13;;;19.60;99.90;;;;;;5074880;28;20359;-75
2022/08/25 08:07:19;;;;;;;48.13;24.70;;;19.30;99.90;;;;;;5074510;28;20037;-72
2022/08/25 08:09:50;;;;;;;69.32;27.00;;;19.30;99.90;;;;;;5072486;28;20045;-74
2022/08/25 08:12:38;;;;;;;52.28;23.67;;;19.30;99.90;;;;;;5059729;28;20375;-75
2022/08/25 08:15:06;;;;;;;;;;;19.30;99.90;;;;;;5074373;28;20052;-75
2022/08/25 08:17:38;;;;;;;31.23;17.73;;;19.30;99.90;;;;;;5074986;28;19920;-75
2022/08/25 08:20:08;;;;;;;75.95;28.75;;;19.30;99.90;;;;;;5074584;28;20044;-74
2022/08/25 08:22:39;;;;;;;40.65;22.27;;;19.30;99.90;;;;;;5074098;28;20045;-74
2022/08/25 08:25:09;;;;;;;42.22;21.02;;;19.40;99.90;;;;;;5074772;28;20474;-74
2022/08/25 08:27:38;;;;;;;35.30;18.70;;;19.30;99.90;;;;;;5058044;28;20434;-75
2022/08/25 08:30:06;;;;;;;30.55;17.73;;;19.20;99.90;;;;;;5073849;28;20463;-74
2022/08/25 08:32:34;;;;;;;;;;;19.40;99.90;;;;;;5075480;28;20052;-74
2022/08/25 08:35:21;;;;;;;;;;;19.30;99.90;;;;;;5074516;28;19921;-81
2022/08/25 08:37:49;;;;;;;31.70;17.50;;;19.10;99.90;;;;;;5056965;28;19920;-78
2022/08/25 08:40:20;;;;;;;40.53;19.77;;;19.20;99.90;;;;;;5074951;28;20052;-77
2022/08/25 08:43:02;;;;;;;28.88;16.33;;;19.30;99.90;;;;;;5073968;28;20455;-75
2022/08/25 08:45:50;;;;;;;22.20;13.77;;;19.20;99.90;;;;;;5074825;28;20044;-75
2022/08/25 08:48:57;;;;;;;48.05;19.20;;;19.40;99.90;;;;;;5073625;28;20055;-75
2022/08/25 08:51:43;;;;;;;23.60;15.30;;;19.30;99.90;;;;;;5074720;28;20055;-74
2022/08/25 08:54:19;;;;;;;31.83;17.90;;;19.30;99.90;;;;;;5040566;28;20048;-77
2022/08/25 08:57:02;;;;;;;37.50;20.23;;;19.50;99.90;;;;;;5057584;28;20052;-78
2022/08/25 08:59:40;;;;;;;45.72;23.23;;;19.60;99.90;;;;;;5078587;28;20048;-76
2022/08/25 09:02:19;;;;;;;44.05;21.13;;;19.40;99.90;;;;;;5077413;28;20051;-77
2022/08/25 09:05:11;;;;;;;75.80;28.00;;;19.50;99.90;;;;;;5063750;28;20044;-72
2022/08/25 09:07:47;;;;;;;40.75;21.05;;;19.60;99.90;;;;;;5078426;28;20052;-75
2022/08/25 09:10:23;;;;;;;20.35;11.75;;;19.70;99.90;;;;;;5077520;28;20055;-76
2022/08/25 09:12:53;;;;;;;21.30;12.00;;;19.70;99.90;;;;;;5061213;28;20052;-76
2022/08/25 09:18:39;;;;;;;24.75;11.82;;;19.70;99.90;;;;;;5078768;28;20056;-76
2022/08/25 09:21:20;;;;;;;23.63;12.63;;;19.80;99.90;;;;;;5062234;28;20044;-76
2022/08/25 09:24:25;;;;;;;19.88;11.85;;;19.80;99.90;;;;;;5077035;28;20040;-77
2022/08/25 09:27:17;;;;;;;20.92;10.63;;;19.80;99.90;;;;;;5012508;28;20048;-75
2022/08/25 09:30:00;;;;;;;17.08;8.85;;;19.80;99.90;;;;;;5039969;28;20044;-79
2022/08/25 09:32:45;;;;;;;20.38;8.75;;;19.80;99.90;;;;;;5077840;28;20037;-80
2022/08/25 09:35:23;;;;;;;14.35;7.45;;;19.70;99.90;;;;;;5076964;28;20098;-80
2022/08/25 09:38:03;;;;;;;23.13;9.32;;;19.60;99.90;;;;;;5060997;28;20052;-82
2022/08/25 09:40:34;;;;;;;;;;;19.60;99.90;;;;;;5044727;28;20048;-82
2022/08/25 09:43:33;;;;;;;14.30;7.68;;;19.50;99.90;;;;;;5077140;28;20359;-80
2022/08/25 09:46:04;;;;;;;16.52;8.38;;;20.50;99.90;;;;;;5056704;28;20044;-79
2022/08/25 09:48:50;;;;;;;13.15;7.60;;;19.80;99.90;;;;;;5067516;28;20052;-80
2022/08/25 09:51:33;;;;;;;9.38;7.00;;;20.30;99.90;;;;;;5076721;28;20503;-80
2022/08/25 09:54:14;;;;;;;14.18;7.00;;;19.50;99.90;;;;;;5057682;28;20049;-80
2022/08/25 09:57:00;;;;;;;16.20;9.73;;;19.30;99.90;;;;;;5057174;28;20380;-79
2022/08/25 09:59:37;;;;;;;29.02;12.80;;;21.50;99.90;;;;;;5057821;28;20057;-79
2022/08/25 10:02:28;;;;;;;20.98;10.65;;;19.70;99.90;;;;;;5038967;28;20053;-79
2022/08/25 10:04:58;;;;;;;17.65;10.43;;;20.80;99.90;;;;;;5039880;28;20045;-79
2022/08/25 10:07:29;;;;;;;;;;;19.80;99.90;;;;;;5040535;28;20049;-79
2022/08/25 10:10:00;;;;;;;18.13;10.07;;;20.30;99.90;;;;;;5055298;28;19921;-79
2022/08/25 10:12:41;;;;;;;16.45;9.52;;;19.80;99.90;;;;;;5057420;28;20060;-79
2022/08/25 10:15:29;;;;;;;13.70;8.95;;;19.80;99.90;;;;;;5056220;28;20053;-79
2022/08/25 10:18:23;;;;;;;15.40;9.32;;;20.70;99.90;;;;;;5056954;28;20395;-80
2022/08/25 10:21:09;;;;;;;28.33;10.48;;;20.10;99.90;;;;;;5056794;28;20082;-80
2022/08/25 10:23:47;;;;;;;10.38;6.00;;;21.20;99.90;;;;;;5056645;28;20056;-79
2022/08/25 10:26:29;;;;;;;11.77;7.53;;;20.10;99.90;;;;;;5039930;28;20056;-78
2022/08/25 10:29:07;;;;;;;8.30;5.63;;;21.20;99.90;;;;;;5038869;28;20045;-80
2022/08/25 10:32:10;;;;;;;9.93;5.47;;;19.90;99.90;;;;;;5039606;28;20052;-81
2022/08/25 10:34:47;;;;;;;12.43;5.00;;;19.40;99.90;;;;;;5056104;28;20060;-80
2022/08/25 10:37:38;;;;;;;26.98;5.50;;;19.60;99.90;;;;;;5057179;28;20060;-79
2022/08/25 10:40:22;;;;;;;23.95;5.03;;;19.60;99.90;;;;;;5039353;28;20044;-77
2022/08/25 10:43:16;;;;;;;5.93;4.60;;;19.80;99.90;;;;;;5038059;28;20047;-77
2022/08/25 10:46:06;;;;;;;9.13;6.25;;;19.80;99.90;;;;;;5056922;28;20364;-77
2022/08/25 10:48:56;;;;;;;12.88;8.80;;;19.90;99.90;;;;;;5037958;28;20391;-78
2022/08/25 10:51:42;;;;;;;8.68;6.38;;;19.90;99.90;;;;;;5039137;28;20064;-79
2022/08/25 10:54:32;;;;;;;13.82;9.13;;;19.90;99.90;;;;;;5056959;28;20052;-78
2022/08/25 10:57:24;;;;;;;11.70;8.43;;;19.90;99.90;;;;;;5038251;28;20060;-79
2022/08/25 10:59:55;;;;;;;14.23;8.05;;;19.90;99.90;;;;;;5039396;28;20059;-79
2022/08/25 11:02:44;;;;;;;9.23;6.45;;;20.00;99.90;;;;;;5055405;28;20045;-78
2022/08/25 11:05:24;;;;;;;15.40;9.68;;;20.50;99.90;;;;;;5039061;28;20051;-78
2022/08/25 11:08:28;;;;;;;7.95;6.60;;;20.10;99.90;;;;;;5056299;28;20112;-78
2022/08/25 11:11:02;;;;;;;9.88;7.00;;;20.10;99.90;;;;;;5055866;28;20041;-78
2022/08/25 11:13:44;;;;;;;9.05;6.68;;;20.10;99.90;;;;;;5038580;28;20048;-79
2022/08/25 11:16:27;;;;;;;13.05;7.05;;;20.20;99.90;;;;;;5037935;28;20053;-79
2022/08/25 11:19:05;;;;;;;9.98;7.10;;;20.20;99.90;;;;;;5038317;28;20045;-79
2022/08/25 11:22:21;;;;;;;8.95;6.63;;;20.20;99.90;;;;;;5055156;28;20367;-79
2022/08/25 11:25:21;;;;;;;7.75;6.22;;;20.90;99.90;;;;;;4984587;28;20065;-78
2022/08/25 11:27:58;;;;;;;8.13;6.10;;;20.30;99.90;;;;;;5072377;28;20040;-78
2022/08/25 11:30:29;;;;;;;9.07;6.80;;;20.40;99.90;;;;;;5073087;28;20068;-78
2022/08/25 11:32:58;;;;;;;10.70;6.20;;;20.50;99.90;;;;;;5057002;28;20063;-77
2022/08/25 11:35:39;;;;;;;7.68;5.55;;;20.60;99.90;;;;;;5039474;28;20052;-78
2022/08/25 11:38:22;;;;;;;6.03;4.45;;;20.70;99.90;;;;;;5074413;28;20055;-78
2022/08/25 11:41:12;;;;;;;6.45;4.93;;;20.80;99.90;;;;;;5075509;28;20048;-78
2022/08/25 11:43:46;;;;;;;8.30;4.78;;;20.90;99.90;;;;;;5056655;28;20380;-77
2022/08/25 11:46:42;;;;;;;4.95;3.55;;;21.00;99.90;;;;;;5074958;28;20040;-77
2022/08/25 11:49:41;;;;;;;6.55;3.85;;;21.00;99.90;;;;;;5074104;28;20052;-78
2022/08/25 11:52:30;;;;;;;4.47;3.47;;;21.10;99.90;;;;;;5057616;28;20055;-78
2022/08/25 11:55:33;;;;;;;5.75;4.00;;;21.30;99.90;;;;;;5057326;28;20044;-79
2022/08/25 11:58:36;;;;;;;5.13;3.50;;;21.40;99.90;;;;;;5017116;28;20056;-78
2022/08/25 12:01:07;;;;;;;6.78;3.47;;;22.00;99.90;;;;;;5057100;28;20045;-78
2022/08/25 12:03:35;;;;;;;4.75;3.10;;;21.70;99.90;;;;;;5056315;28;20387;-79
2022/08/25 12:06:26;;;;;;;3.30;1.92;;;21.80;99.90;;;;;;5056794;28;20052;-78
2022/08/25 12:09:04;;;;;;;3.22;2.20;;;21.80;99.90;;;;;;5056285;28;20049;-79
2022/08/25 12:11:42;;;;;;;4.43;2.70;;;21.80;99.90;;;;;;5074749;28;20123;-78
2022/08/25 12:14:40;;;;;;;4.70;2.70;;;21.70;99.90;;;;;;5057069;28;20048;-79
2022/08/25 12:17:21;;;;;;;4.07;2.17;;;21.60;99.90;;;;;;5055148;28;20082;-78
2022/08/25 12:19:54;;;;;;;5.18;2.75;;;21.50;99.90;;;;;;5074622;28;20052;-79
2022/08/25 12:22:25;;;;;;;4.75;1.95;;;21.30;99.90;;;;;;5055920;28;20379;-78
2022/08/25 12:25:10;;;;;;;4.78;2.22;;;21.30;99.90;;;;;;5056913;28;20374;-78
2022/08/25 12:28:19;;;;;;;4.78;2.15;;;21.20;99.90;;;;;;5057569;28;20051;-78
2022/08/25 12:31:00;;;;;;;5.45;2.90;;;21.10;99.90;;;;;;5056477;28;20130;-76
2022/08/25 12:33:45;;;;;;;4.93;2.80;;;21.00;99.90;;;;;;5069901;28;20044;-73
2022/08/25 12:36:30;;;;;;;4.43;2.60;;;21.20;99.90;;;;;;5031691;28;20379;-75
2022/08/25 12:39:19;;;;;;;7.68;3.05;;;21.40;99.90;;;;;;5053894;28;20053;-76
2022/08/25 12:41:55;;;;;;;5.78;2.65;;;21.60;99.90;;;;;;5053186;28;20060;-75
2022/08/25 12:44:47;;;;;;;3.00;1.55;;;21.70;99.90;;;;;;5055077;28;20041;-75
2022/08/25 12:47:31;;;;;;;4.70;2.30;;;21.80;99.90;;;;;;5054536;28;20060;-78
2022/08/25 12:50:46;;;;;;;3.45;2.05;;;21.90;99.90;;;;;;5038958;28;20051;-75
2022/08/25 12:53:41;;;;;;;4.47;2.40;;;22.10;99.90;;;;;;5037105;28;20479;-77
2022/08/25 12:56:19;;;;;;;6.70;1.63;;;22.40;99.90;;;;;;5019521;28;20072;-76
2022/08/25 12:59:00;;;;;;;3.45;2.10;;;22.30;99.90;;;;;;5053850;28;20064;-79
2022/08/25 13:02:05;;;;;;;4.55;2.05;;;22.20;99.90;;;;;;5020572;28;20045;-76
2022/08/25 13:04:42;;;;;;;4.82;1.80;;;22.30;99.90;;;;;;5054067;28;20041;-78
2022/08/25 13:07:22;;;;;;;4.90;1.75;;;22.40;99.90;;;;;;5054789;28;20056;-79
2022/08/25 13:10:19;;;;;;;2.70;1.70;;;22.80;99.90;;;;;;5036172;28;20368;-79
2022/08/25 13:13:19;;;;;;;3.55;1.40;;;22.80;99.90;;;;;;5034419;28;20049;-74
2022/08/25 13:15:59;;;;;;;2.85;1.95;;;22.90;99.90;;;;;;5033785;28;20054;-79
2022/08/25 13:18:40;;;;;;;3.38;2.33;;;22.90;99.90;;;;;;5019338;28;20352;-78
2022/08/25 13:21:15;;;;;;;4.22;2.10;;;22.60;99.90;;;;;;5017355;28;20045;-75
2022/08/25 13:23:49;;;;;;;5.07;2.22;;;22.50;99.90;;;;;;5033196;28;20042;-75
2022/08/25 13:26:24;;;;;;;6.72;2.17;;;22.30;99.90;;;;;;5018053;28;20041;-76
2022/08/25 13:28:57;;;;;;;5.88;2.35;;;23.80;99.90;;;;;;5033800;28;20121;-75
2022/08/25 13:31:28;;;;;;;5.47;2.40;;;22.20;99.90;;;;;;5034837;28;20045;-72
2022/08/25 13:33:57;;;;;;;7.32;2.88;;;22.30;99.90;;;;;;5041936;28;20064;-78